sensor_id;sensor_type;location;lat;lon;timestamp;temperature;humidity
1702;DHT22;848;48.354;10.064;2023-06-24T00:02:21;17.50;99.90
1702;DHT22;848;48.354;10.064;2023-06-24T00:04:49;17.60;99.90
1702;DHT22;848;48.354;10.064;2023-06-24T00:07:16;17.60;99.90
1702;DHT22;848;48.354;10.064;2023-06-24T00:09:43;17.60;99.90
1702;DHT22;848;48.354;10.064;2023-06-24T00:12:10;17.60;99.90
1702;DHT22;848;48.354;10.064;2023-06-24T00:14:45;17.60;99.90
1702;DHT22;848;48.354;10.064;2023-06-24T00:17:12;17.60;99.90
1702;DHT22;848;48.354;10.064;2023-06-24T00:19:40;17.60;99.90
1702;DHT22;848;48.354;10.064;2023-06-24T00:22:07;17.60;99.90
1702;DHT22;848;48.354;10.064;2023-06-24T00:24:34;17.60;99.90
1702;DHT22;848;48.354;10.064;2023-06-24T00:27:01;17.60;99.90
1702;DHT22;848;48.354;10.064;2023-06-24T00:29:27;17.60;99.90
1702;DHT22;848;48.354;10.064;2023-06-24T00:31:54;17.60;99.90
1702;DHT22;848;48.354;10.064;2023-06-24T00:34:21;17.60;99.90
1702;DHT22;848;48.354;10.064;2023-06-24T00:36:50;17.50;99.90
1702;DHT22;848;48.354;10.064;2023-06-24T00:39:17;17.60;99.90
1702;DHT22;848;48.354;10.064;2023-06-24T00:41:44;17.50;99.90
1702;DHT22;848;48.354;10.064;2023-06-24T00:44:12;17.40;99.90
1702;DHT22;848;48.354;10.064;2023-06-24T00:46:39;17.30;99.90
1702;DHT22;848;48.354;10.064;2023-06-24T00:49:06;17.30;99.90
1702;DHT22;848;48.354;10.064;2023-06-24T00:51:33;17.40;99.90
1702;DHT22;848;48.354;10.064;2023-06-24T00:54:03;17.50;99.90
1702;DHT22;848;48.354;10.064;2023-06-24T00:56:31;17.50;99.90
1702;DHT22;848;48.354;10.064;2023-06-24T00:59:00;17.50;99.90
1702;DHT22;848;48.354;10.064;2023-06-24T01:01:29;17.50;99.90
1702;DHT22;848;48.354;10.064;2023-06-24T01:04:01;17.40;99.90
1702;DHT22;848;48.354;10.064;2023-06-24T01:06:29;17.30;99.90
1702;DHT22;848;48.354;10.064;2023-06-24T01:08:57;17.30;99.90
1702;DHT22;848;48.354;10.064;2023-06-24T01:11:30;17.20;99.90
1702;DHT22;848;48.354;10.064;2023-06-24T01:13:57;17.20;99.90
1702;DHT22;848;48.354;10.064;2023-06-24T01:16:37;17.20;99.90
1702;DHT22;848;48.354;10.064;2023-06-24T01:19:24;17.20;99.90
1702;DHT22;848;48.354;10.064;2023-06-24T01:22:06;17.30;99.90
1702;DHT22;848;48.354;10.064;2023-06-24T01:24:51;17.40;99.90
1702;DHT22;848;48.354;10.064;2023-06-24T01:27:52;17.40;99.90
1702;DHT22;848;48.354;10.064;2023-06-24T01:33:31;17.50;99.90
1702;DHT22;848;48.354;10.064;2023-06-24T01:36:00;17.60;99.90
1702;DHT22;848;48.354;10.064;2023-06-24T01:38:34;17.60;99.90
1702;DHT22;848;48.354;10.064;2023-06-24T01:41:03;17.60;99.90
1702;DHT22;848;48.354;10.064;2023-06-24T01:43:31;17.60;99.90
1702;DHT22;848;48.354;10.064;2023-06-24T01:45:59;17.60;99.90
1702;DHT22;848;48.354;10.064;2023-06-24T01:48:28;17.60;99.90
1702;DHT22;848;48.354;10.064;2023-06-24T01:51:01;17.60;99.90
1702;DHT22;848;48.354;10.064;2023-06-24T01:53:34;17.60;99.90
1702;DHT22;848;48.354;10.064;2023-06-24T01:56:03;17.60;99.90
1702;DHT22;848;48.354;10.064;2023-06-24T01:58:30;17.60;99.90
1702;DHT22;848;48.354;10.064;2023-06-24T02:01:00;17.50;99.90
1702;DHT22;848;48.354;10.064;2023-06-24T02:03:29;17.60;99.90
1702;DHT22;848;48.354;10.064;2023-06-24T02:05:59;17.50;99.90
1702;DHT22;848;48.354;10.064;2023-06-24T02:08:29;17.60;99.90
1702;DHT22;848;48.354;10.064;2023-06-24T02:10:59;17.60;99.90
1702;DHT22;848;48.354;10.064;2023-06-24T02:13:26;17.50;99.90
1702;DHT22;848;48.354;10.064;2023-06-24T02:15:54;17.50;99.90
1702;DHT22;848;48.354;10.064;2023-06-24T02:18:22;17.50;99.90
1702;DHT22;848;48.354;10.064;2023-06-24T02:20:51;17.40;99.90
1702;DHT22;848;48.354;10.064;2023-06-24T02:23:19;17.50;99.90
1702;DHT22;848;48.354;10.064;2023-06-24T02:25:47;17.40;99.90
1702;DHT22;848;48.354;10.064;2023-06-24T02:28:15;17.40;99.90
1702;DHT22;848;48.354;10.064;2023-06-24T02:30:43;17.50;99.90
1702;DHT22;848;48.354;10.064;2023-06-24T02:33:10;17.50;99.90
1702;DHT22;848;48.354;10.064;2023-06-24T02:35:37;17.40;99.90
1702;DHT22;848;48.354;10.064;2023-06-24T02:38:08;17.40;99.90
1702;DHT22;848;48.354;10.064;2023-06-24T02:40:35;17.40;99.90
1702;DHT22;848;48.354;10.064;2023-06-24T02:43:02;17.30;99.90
1702;DHT22;848;48.354;10.064;2023-06-24T02:45:29;17.30;99.90
1702;DHT22;848;48.354;10.064;2023-06-24T02:47:57;17.20;99.90
1702;DHT22;848;48.354;10.064;2023-06-24T02:50:25;17.30;99.90
1702;DHT22;848;48.354;10.064;2023-06-24T02:52:54;17.30;99.90
1702;DHT22;848;48.354;10.064;2023-06-24T02:55:23;17.30;99.90
1702;DHT22;848;48.354;10.064;2023-06-24T02:57:50;17.30;99.90
1702;DHT22;848;48.354;10.064;2023-06-24T03:00:19;17.20;99.90
1702;DHT22;848;48.354;10.064;2023-06-24T03:02:47;17.20;99.90
1702;DHT22;848;48.354;10.064;2023-06-24T03:05:15;17.10;99.90
1702;DHT22;848;48.354;10.064;2023-06-24T03:07:44;17.10;99.90
1702;DHT22;848;48.354;10.064;2023-06-24T03:10:12;17.10;99.90
1702;DHT22;848;48.354;10.064;2023-06-24T03:12:42;17.00;99.90
1702;DHT22;848;48.354;10.064;2023-06-24T03:15:09;17.00;99.90
1702;DHT22;848;48.354;10.064;2023-06-24T03:17:36;16.90;99.90
1702;DHT22;848;48.354;10.064;2023-06-24T03:20:04;16.90;99.90
1702;DHT22;848;48.354;10.064;2023-06-24T03:22:32;16.80;99.90
1702;DHT22;848;48.354;10.064;2023-06-24T03:24:59;16.70;99.90
1702;DHT22;848;48.354;10.064;2023-06-24T03:27:26;16.70;99.90
1702;DHT22;848;48.354;10.064;2023-06-24T03:29:54;16.70;99.90
1702;DHT22;848;48.354;10.064;2023-06-24T03:32:21;16.60;99.90
1702;DHT22;848;48.354;10.064;2023-06-24T03:34:48;16.60;99.90
1702;DHT22;848;48.354;10.064;2023-06-24T03:37:15;16.50;99.90
1702;DHT22;848;48.354;10.064;2023-06-24T03:39:42;16.40;99.90
1702;DHT22;848;48.354;10.064;2023-06-24T03:42:08;16.40;99.90
1702;DHT22;848;48.354;10.064;2023-06-24T03:44:35;16.30;99.90
1702;DHT22;848;48.354;10.064;2023-06-24T03:47:04;16.30;99.90
1702;DHT22;848;48.354;10.064;2023-06-24T03:49:30;16.20;99.90
1702;DHT22;848;48.354;10.064;2023-06-24T03:51:57;16.10;99.90
1702;DHT22;848;48.354;10.064;2023-06-24T03:54:24;16.10;99.90
1702;DHT22;848;48.354;10.064;2023-06-24T03:56:51;16.00;99.90
1702;DHT22;848;48.354;10.064;2023-06-24T03:59:18;16.00;99.90
1702;DHT22;848;48.354;10.064;2023-06-24T04:01:46;16.00;99.90
1702;DHT22;848;48.354;10.064;2023-06-24T04:04:14;16.10;99.90
1702;DHT22;848;48.354;10.064;2023-06-24T04:06:41;16.00;99.90
1702;DHT22;848;48.354;10.064;2023-06-24T04:09:07;16.00;99.90
1702;DHT22;848;48.354;10.064;2023-06-24T04:11:35;15.90;99.90
1702;DHT22;848;48.354;10.064;2023-06-24T04:14:02;15.90;99.90
1702;DHT22;848;48.354;10.064;2023-06-24T04:16:32;16.00;99.90
1702;DHT22;848;48.354;10.064;2023-06-24T04:18:59;16.00;99.90
1702;DHT22;848;48.354;10.064;2023-06-24T04:21:27;16.00;99.90
1702;DHT22;848;48.354;10.064;2023-06-24T04:23:54;16.10;99.90
1702;DHT22;848;48.354;10.064;2023-06-24T04:26:21;16.10;99.90
1702;DHT22;848;48.354;10.064;2023-06-24T04:28:48;16.20;99.90
1702;DHT22;848;48.354;10.064;2023-06-24T04:31:15;16.30;99.90
1702;DHT22;848;48.354;10.064;2023-06-24T04:33:42;16.40;99.90
1702;DHT22;848;48.354;10.064;2023-06-24T04:36:09;16.50;99.90
1702;DHT22;848;48.354;10.064;2023-06-24T04:38:37;16.50;99.90
1702;DHT22;848;48.354;10.064;2023-06-24T04:41:04;16.60;99.90
1702;DHT22;848;48.354;10.064;2023-06-24T04:43:31;16.70;99.90
1702;DHT22;848;48.354;10.064;2023-06-24T04:45:58;16.80;99.90
1702;DHT22;848;48.354;10.064;2023-06-24T04:48:26;16.80;99.90
1702;DHT22;848;48.354;10.064;2023-06-24T04:50:53;16.90;99.90
1702;DHT22;848;48.354;10.064;2023-06-24T04:53:21;16.90;99.90
1702;DHT22;848;48.354;10.064;2023-06-24T04:55:49;16.90;99.90
1702;DHT22;848;48.354;10.064;2023-06-24T04:58:16;16.80;99.90
1702;DHT22;848;48.354;10.064;2023-06-24T05:00:43;16.70;99.90
1702;DHT22;848;48.354;10.064;2023-06-24T05:03:10;16.60;99.90
1702;DHT22;848;48.354;10.064;2023-06-24T05:05:37;16.50;99.90
1702;DHT22;848;48.354;10.064;2023-06-24T05:08:56;16.50;99.90
1702;DHT22;848;48.354;10.064;2023-06-24T05:11:23;16.40;99.90
1702;DHT22;848;48.354;10.064;2023-06-24T05:13:50;16.40;99.90
1702;DHT22;848;48.354;10.064;2023-06-24T05:16:16;16.40;99.90
1702;DHT22;848;48.354;10.064;2023-06-24T05:18:44;16.50;99.90
1702;DHT22;848;48.354;10.064;2023-06-24T05:21:11;16.50;99.90
1702;DHT22;848;48.354;10.064;2023-06-24T05:23:38;16.60;99.90
1702;DHT22;848;48.354;10.064;2023-06-24T05:26:06;16.70;99.90
1702;DHT22;848;48.354;10.064;2023-06-24T05:28:33;16.80;99.90
1702;DHT22;848;48.354;10.064;2023-06-24T05:31:00;16.90;99.90
1702;DHT22;848;48.354;10.064;2023-06-24T05:33:27;17.00;99.90
1702;DHT22;848;48.354;10.064;2023-06-24T05:35:53;17.10;99.90
1702;DHT22;848;48.354;10.064;2023-06-24T05:38:20;17.20;99.90
1702;DHT22;848;48.354;10.064;2023-06-24T05:40:47;17.20;99.90
1702;DHT22;848;48.354;10.064;2023-06-24T05:43:15;17.40;99.90
1702;DHT22;848;48.354;10.064;2023-06-24T05:45:42;17.40;99.90
1702;DHT22;848;48.354;10.064;2023-06-24T05:48:10;17.60;99.90
1702;DHT22;848;48.354;10.064;2023-06-24T05:50:36;17.70;99.90
1702;DHT22;848;48.354;10.064;2023-06-24T05:53:03;17.80;99.90
1702;DHT22;848;48.354;10.064;2023-06-24T05:55:30;17.90;99.90
1702;DHT22;848;48.354;10.064;2023-06-24T05:57:57;18.00;99.90
1702;DHT22;848;48.354;10.064;2023-06-24T06:00:25;18.00;99.90
1702;DHT22;848;48.354;10.064;2023-06-24T06:02:52;18.10;99.90
1702;DHT22;848;48.354;10.064;2023-06-24T06:05:20;18.30;99.90
1702;DHT22;848;48.354;10.064;2023-06-24T06:07:46;18.30;99.90
1702;DHT22;848;48.354;10.064;2023-06-24T06:10:14;18.40;99.90
1702;DHT22;848;48.354;10.064;2023-06-24T06:12:43;18.50;99.90
1702;DHT22;848;48.354;10.064;2023-06-24T06:15:10;18.50;99.90
1702;DHT22;848;48.354;10.064;2023-06-24T06:17:39;18.50;99.90
1702;DHT22;848;48.354;10.064;2023-06-24T06:20:07;18.60;99.90
1702;DHT22;848;48.354;10.064;2023-06-24T06:22:34;18.70;99.90
1702;DHT22;848;48.354;10.064;2023-06-24T06:25:04;18.80;99.90
1702;DHT22;848;48.354;10.064;2023-06-24T06:27:31;18.90;99.90
1702;DHT22;848;48.354;10.064;2023-06-24T06:29:58;19.00;99.90
1702;DHT22;848;48.354;10.064;2023-06-24T06:32:25;19.10;99.90
1702;DHT22;848;48.354;10.064;2023-06-24T06:34:53;19.20;99.90
1702;DHT22;848;48.354;10.064;2023-06-24T06:37:20;19.30;99.90
1702;DHT22;848;48.354;10.064;2023-06-24T06:39:47;19.50;99.90
1702;DHT22;848;48.354;10.064;2023-06-24T06:42:15;19.60;99.90
1702;DHT22;848;48.354;10.064;2023-06-24T06:44:42;19.80;99.90
1702;DHT22;848;48.354;10.064;2023-06-24T06:47:10;19.90;99.90
1702;DHT22;848;48.354;10.064;2023-06-24T06:49:37;20.00;99.90
1702;DHT22;848;48.354;10.064;2023-06-24T06:52:06;20.10;99.90
1702;DHT22;848;48.354;10.064;2023-06-24T06:54:33;20.10;99.90
1702;DHT22;848;48.354;10.064;2023-06-24T06:57:00;20.10;99.90
1702;DHT22;848;48.354;10.064;2023-06-24T06:59:27;20.10;99.90
1702;DHT22;848;48.354;10.064;2023-06-24T07:01:54;20.20;99.90
1702;DHT22;848;48.354;10.064;2023-06-24T07:04:22;20.20;99.90
1702;DHT22;848;48.354;10.064;2023-06-24T07:06:48;20.40;99.90
1702;DHT22;848;48.354;10.064;2023-06-24T07:09:17;20.50;99.90
1702;DHT22;848;48.354;10.064;2023-06-24T07:11:43;20.60;99.90
1702;DHT22;848;48.354;10.064;2023-06-24T07:14:10;20.70;99.90
1702;DHT22;848;48.354;10.064;2023-06-24T07:16:38;20.80;99.90
1702;DHT22;848;48.354;10.064;2023-06-24T07:19:04;20.90;99.90
1702;DHT22;848;48.354;10.064;2023-06-24T07:21:31;21.00;99.90
1702;DHT22;848;48.354;10.064;2023-06-24T07:23:58;21.00;99.90
1702;DHT22;848;48.354;10.064;2023-06-24T07:26:27;21.10;99.90
1702;DHT22;848;48.354;10.064;2023-06-24T07:28:56;21.10;99.90
1702;DHT22;848;48.354;10.064;2023-06-24T07:31:24;21.30;99.90
1702;DHT22;848;48.354;10.064;2023-06-24T07:33:50;21.40;99.90
1702;DHT22;848;48.354;10.064;2023-06-24T07:36:17;21.40;99.90
1702;DHT22;848;48.354;10.064;2023-06-24T07:38:45;21.40;99.90
1702;DHT22;848;48.354;10.064;2023-06-24T07:41:12;21.50;99.90
1702;DHT22;848;48.354;10.064;2023-06-24T07:43:40;21.50;99.90
1702;DHT22;848;48.354;10.064;2023-06-24T07:46:07;21.60;99.90
1702;DHT22;848;48.354;10.064;2023-06-24T07:48:34;21.60;99.90
1702;DHT22;848;48.354;10.064;2023-06-24T07:51:01;21.60;99.90
1702;DHT22;848;48.354;10.064;2023-06-24T07:53:27;21.60;99.90
1702;DHT22;848;48.354;10.064;2023-06-24T07:55:54;21.60;99.90
1702;DHT22;848;48.354;10.064;2023-06-24T07:58:21;21.80;99.90
1702;DHT22;848;48.354;10.064;2023-06-24T08:00:50;22.00;99.90
1702;DHT22;848;48.354;10.064;2023-06-24T08:03:16;22.10;99.90
1702;DHT22;848;48.354;10.064;2023-06-24T08:05:43;22.20;99.90
1702;DHT22;848;48.354;10.064;2023-06-24T08:08:10;22.30;99.90
1702;DHT22;848;48.354;10.064;2023-06-24T08:10:37;22.30;99.90
1702;DHT22;848;48.354;10.064;2023-06-24T08:13:04;22.30;99.90
1702;DHT22;848;48.354;10.064;2023-06-24T08:15:31;22.30;99.90
1702;DHT22;848;48.354;10.064;2023-06-24T08:17:59;22.40;99.90
1702;DHT22;848;48.354;10.064;2023-06-24T08:20:26;22.40;99.90
1702;DHT22;848;48.354;10.064;2023-06-24T08:22:53;22.40;99.90
1702;DHT22;848;48.354;10.064;2023-06-24T08:25:20;22.50;99.90
1702;DHT22;848;48.354;10.064;2023-06-24T08:27:47;22.70;99.90
1702;DHT22;848;48.354;10.064;2023-06-24T08:30:14;23.00;99.90
1702;DHT22;848;48.354;10.064;2023-06-24T08:32:41;23.20;99.90
1702;DHT22;848;48.354;10.064;2023-06-24T08:35:10;23.80;99.90
1702;DHT22;848;48.354;10.064;2023-06-24T08:37:37;24.30;99.90
1702;DHT22;848;48.354;10.064;2023-06-24T08:40:05;24.90;99.90
1702;DHT22;848;48.354;10.064;2023-06-24T08:42:32;25.50;99.90
1702;DHT22;848;48.354;10.064;2023-06-24T08:44:59;25.70;99.90
1702;DHT22;848;48.354;10.064;2023-06-24T08:47:28;25.80;99.90
1702;DHT22;848;48.354;10.064;2023-06-24T08:50:01;26.10;99.90
1702;DHT22;848;48.354;10.064;2023-06-24T08:52:32;26.40;99.90
1702;DHT22;848;48.354;10.064;2023-06-24T08:55:01;26.40;99.90
1702;DHT22;848;48.354;10.064;2023-06-24T08:57:28;26.40;99.90
1702;DHT22;848;48.354;10.064;2023-06-24T08:59:55;26.20;99.90
1702;DHT22;848;48.354;10.064;2023-06-24T09:02:23;26.20;99.90
1702;DHT22;848;48.354;10.064;2023-06-24T09:04:51;26.40;99.90
1702;DHT22;848;48.354;10.064;2023-06-24T09:07:26;26.60;99.90
1702;DHT22;848;48.354;10.064;2023-06-24T09:09:55;26.70;99.90
1702;DHT22;848;48.354;10.064;2023-06-24T09:12:24;26.60;99.90
1702;DHT22;848;48.354;10.064;2023-06-24T09:14:51;26.40;99.90
1702;DHT22;848;48.354;10.064;2023-06-24T09:17:18;25.70;99.90
1702;DHT22;848;48.354;10.064;2023-06-24T09:19:48;24.90;99.90
1702;DHT22;848;48.354;10.064;2023-06-24T09:22:15;24.30;99.90
1702;DHT22;848;48.354;10.064;2023-06-24T09:24:44;24.00;99.90
1702;DHT22;848;48.354;10.064;2023-06-24T09:27:14;24.20;99.90
1702;DHT22;848;48.354;10.064;2023-06-24T09:29:42;24.50;99.90
1702;DHT22;848;48.354;10.064;2023-06-24T09:32:10;24.80;99.90
1702;DHT22;848;48.354;10.064;2023-06-24T09:34:37;25.10;99.90
1702;DHT22;848;48.354;10.064;2023-06-24T09:37:04;24.70;99.90
1702;DHT22;848;48.354;10.064;2023-06-24T09:39:36;24.50;99.90
1702;DHT22;848;48.354;10.064;2023-06-24T09:42:04;24.60;99.90
1702;DHT22;848;48.354;10.064;2023-06-24T09:44:33;24.60;99.90
1702;DHT22;848;48.354;10.064;2023-06-24T09:47:00;24.50;99.90
1702;DHT22;848;48.354;10.064;2023-06-24T09:49:28;24.10;99.90
1702;DHT22;848;48.354;10.064;2023-06-24T09:51:56;23.80;99.90
1702;DHT22;848;48.354;10.064;2023-06-24T09:54:25;23.90;99.90
1702;DHT22;848;48.354;10.064;2023-06-24T09:56:54;24.20;99.90
1702;DHT22;848;48.354;10.064;2023-06-24T09:59:23;24.20;99.90
1702;DHT22;848;48.354;10.064;2023-06-24T10:01:53;24.10;99.90
1702;DHT22;848;48.354;10.064;2023-06-24T10:04:21;24.10;99.90
1702;DHT22;848;48.354;10.064;2023-06-24T10:06:48;24.40;99.90
1702;DHT22;848;48.354;10.064;2023-06-24T10:09:16;24.80;99.90
1702;DHT22;848;48.354;10.064;2023-06-24T10:11:45;24.90;99.90
1702;DHT22;848;48.354;10.064;2023-06-24T10:14:12;24.80;99.90
1702;DHT22;848;48.354;10.064;2023-06-24T10:16:40;24.50;99.90
1702;DHT22;848;48.354;10.064;2023-06-24T10:19:09;24.60;99.90
1702;DHT22;848;48.354;10.064;2023-06-24T10:21:45;24.60;99.90
1702;DHT22;848;48.354;10.064;2023-06-24T10:24:30;24.40;99.90
1702;DHT22;848;48.354;10.064;2023-06-24T10:27:02;24.20;99.90
1702;DHT22;848;48.354;10.064;2023-06-24T10:29:33;24.10;99.90
1702;DHT22;848;48.354;10.064;2023-06-24T10:32:03;24.00;99.90
1702;DHT22;848;48.354;10.064;2023-06-24T10:34:42;24.00;99.90
1702;DHT22;848;48.354;10.064;2023-06-24T10:37:11;23.90;99.90
1702;DHT22;848;48.354;10.064;2023-06-24T10:39:40;23.90;99.90
1702;DHT22;848;48.354;10.064;2023-06-24T10:42:29;23.70;99.90
1702;DHT22;848;48.354;10.064;2023-06-24T10:44:56;23.70;99.90
1702;DHT22;848;48.354;10.064;2023-06-24T10:47:25;23.80;99.90
1702;DHT22;848;48.354;10.064;2023-06-24T10:49:53;23.80;99.90
1702;DHT22;848;48.354;10.064;2023-06-24T10:52:22;23.70;99.90
1702;DHT22;848;48.354;10.064;2023-06-24T10:54:50;23.40;99.90
1702;DHT22;848;48.354;10.064;2023-06-24T10:57:21;23.20;99.90
1702;DHT22;848;48.354;10.064;2023-06-24T10:59:49;23.20;99.90
1702;DHT22;848;48.354;10.064;2023-06-24T11:02:17;23.20;99.90
1702;DHT22;848;48.354;10.064;2023-06-24T11:04:45;23.20;99.90
1702;DHT22;848;48.354;10.064;2023-06-24T11:07:14;23.30;99.90
1702;DHT22;848;48.354;10.064;2023-06-24T11:09:41;23.40;99.90
1702;DHT22;848;48.354;10.064;2023-06-24T11:12:09;23.40;99.90
1702;DHT22;848;48.354;10.064;2023-06-24T11:14:38;23.50;99.90
1702;DHT22;848;48.354;10.064;2023-06-24T11:17:05;23.60;99.90
1702;DHT22;848;48.354;10.064;2023-06-24T11:19:32;23.70;99.90
1702;DHT22;848;48.354;10.064;2023-06-24T11:22:02;23.60;99.90
1702;DHT22;848;48.354;10.064;2023-06-24T11:24:30;23.50;99.90
1702;DHT22;848;48.354;10.064;2023-06-24T11:26:57;23.50;99.90
1702;DHT22;848;48.354;10.064;2023-06-24T11:29:24;23.50;99.90
1702;DHT22;848;48.354;10.064;2023-06-24T11:31:55;23.50;99.90
1702;DHT22;848;48.354;10.064;2023-06-24T11:34:22;23.40;99.90
1702;DHT22;848;48.354;10.064;2023-06-24T11:36:49;23.40;99.90
1702;DHT22;848;48.354;10.064;2023-06-24T11:39:23;23.30;99.90
1702;DHT22;848;48.354;10.064;2023-06-24T11:41:52;23.40;99.90
1702;DHT22;848;48.354;10.064;2023-06-24T11:44:19;23.50;99.90
1702;DHT22;848;48.354;10.064;2023-06-24T11:46:47;23.50;99.90
1702;DHT22;848;48.354;10.064;2023-06-24T11:49:14;23.60;99.90
1702;DHT22;848;48.354;10.064;2023-06-24T11:51:49;23.60;99.90
1702;DHT22;848;48.354;10.064;2023-06-24T11:54:17;23.50;99.90
1702;DHT22;848;48.354;10.064;2023-06-24T11:56:51;23.40;99.90
1702;DHT22;848;48.354;10.064;2023-06-24T11:59:19;23.40;99.90
1702;DHT22;848;48.354;10.064;2023-06-24T12:01:52;23.50;99.90
1702;DHT22;848;48.354;10.064;2023-06-24T12:04:21;23.60;99.90
1702;DHT22;848;48.354;10.064;2023-06-24T12:06:48;23.60;99.90
1702;DHT22;848;48.354;10.064;2023-06-24T12:09:15;23.60;99.90
1702;DHT22;848;48.354;10.064;2023-06-24T12:11:43;23.60;99.90
1702;DHT22;848;48.354;10.064;2023-06-24T12:14:11;23.60;99.90
1702;DHT22;848;48.354;10.064;2023-06-24T12:16:39;23.60;99.90
1702;DHT22;848;48.354;10.064;2023-06-24T12:19:06;23.60;99.90
1702;DHT22;848;48.354;10.064;2023-06-24T12:21:33;23.60;99.90
1702;DHT22;848;48.354;10.064;2023-06-24T12:24:00;23.60;99.90
1702;DHT22;848;48.354;10.064;2023-06-24T12:26:27;23.60;99.90
1702;DHT22;848;48.354;10.064;2023-06-24T12:28:54;23.60;99.90
1702;DHT22;848;48.354;10.064;2023-06-24T12:31:24;23.60;99.90
1702;DHT22;848;48.354;10.064;2023-06-24T12:33:51;23.60;99.90
1702;DHT22;848;48.354;10.064;2023-06-24T12:36:18;23.50;99.90
1702;DHT22;848;48.354;10.064;2023-06-24T12:38:45;23.50;99.90
1702;DHT22;848;48.354;10.064;2023-06-24T12:41:12;23.60;99.90
1702;DHT22;848;48.354;10.064;2023-06-24T12:43:39;23.60;99.90
1702;DHT22;848;48.354;10.064;2023-06-24T12:46:06;23.50;99.90
1702;DHT22;848;48.354;10.064;2023-06-24T12:48:34;23.50;99.90
1702;DHT22;848;48.354;10.064;2023-06-24T12:51:01;23.60;99.90
1702;DHT22;848;48.354;10.064;2023-06-24T12:53:28;23.60;99.90
1702;DHT22;848;48.354;10.064;2023-06-24T12:55:55;23.60;99.90
1702;DHT22;848;48.354;10.064;2023-06-24T12:58:23;23.50;99.90
1702;DHT22;848;48.354;10.064;2023-06-24T13:00:50;23.60;99.90
1702;DHT22;848;48.354;10.064;2023-06-24T13:03:17;23.60;99.90
1702;DHT22;848;48.354;10.064;2023-06-24T13:05:46;23.60;99.90
1702;DHT22;848;48.354;10.064;2023-06-24T13:08:12;23.60;99.90
1702;DHT22;848;48.354;10.064;2023-06-24T13:10:40;23.60;99.90
1702;DHT22;848;48.354;10.064;2023-06-24T13:13:07;23.60;99.90
1702;DHT22;848;48.354;10.064;2023-06-24T13:15:34;23.60;99.90
1702;DHT22;848;48.354;10.064;2023-06-24T13:18:01;23.80;99.90
1702;DHT22;848;48.354;10.064;2023-06-24T13:20:28;23.80;99.90
1702;DHT22;848;48.354;10.064;2023-06-24T13:22:56;23.80;99.90
1702;DHT22;848;48.354;10.064;2023-06-24T13:25:23;23.80;99.90
1702;DHT22;848;48.354;10.064;2023-06-24T13:27:50;23.70;99.90
1702;DHT22;848;48.354;10.064;2023-06-24T13:30:17;23.70;99.90
1702;DHT22;848;48.354;10.064;2023-06-24T13:32:44;23.60;99.90
1702;DHT22;848;48.354;10.064;2023-06-24T13:35:11;23.60;99.90
1702;DHT22;848;48.354;10.064;2023-06-24T13:37:38;23.60;99.90
1702;DHT22;848;48.354;10.064;2023-06-24T13:40:08;23.60;99.90
1702;DHT22;848;48.354;10.064;2023-06-24T13:42:35;23.60;99.90
1702;DHT22;848;48.354;10.064;2023-06-24T13:45:02;23.60;99.90
1702;DHT22;848;48.354;10.064;2023-06-24T13:47:29;23.60;99.90
1702;DHT22;848;48.354;10.064;2023-06-24T13:49:56;23.70;99.90
1702;DHT22;848;48.354;10.064;2023-06-24T13:52:24;23.60;99.90
1702;DHT22;848;48.354;10.064;2023-06-24T13:54:51;23.60;99.90
1702;DHT22;848;48.354;10.064;2023-06-24T13:57:19;23.60;99.90
1702;DHT22;848;48.354;10.064;2023-06-24T13:59:46;23.60;99.90
1702;DHT22;848;48.354;10.064;2023-06-24T14:02:13;23.60;99.90
1702;DHT22;848;48.354;10.064;2023-06-24T14:04:40;23.70;99.90
1702;DHT22;848;48.354;10.064;2023-06-24T14:07:07;23.70;99.90
1702;DHT22;848;48.354;10.064;2023-06-24T14:09:35;23.60;99.90
1702;DHT22;848;48.354;10.064;2023-06-24T14:12:02;23.60;99.90
1702;DHT22;848;48.354;10.064;2023-06-24T14:14:30;23.70;99.90
1702;DHT22;848;48.354;10.064;2023-06-24T14:16:57;23.70;99.90
1702;DHT22;848;48.354;10.064;2023-06-24T14:19:24;23.70;99.90
1702;DHT22;848;48.354;10.064;2023-06-24T14:21:51;23.80;99.90
1702;DHT22;848;48.354;10.064;2023-06-24T14:24:18;23.80;99.90
1702;DHT22;848;48.354;10.064;2023-06-24T14:26:45;23.90;99.90
1702;DHT22;848;48.354;10.064;2023-06-24T14:29:15;23.80;99.90
1702;DHT22;848;48.354;10.064;2023-06-24T14:31:43;23.70;99.90
1702;DHT22;848;48.354;10.064;2023-06-24T14:34:10;23.60;99.90
1702;DHT22;848;48.354;10.064;2023-06-24T14:36:37;23.50;99.90
1702;DHT22;848;48.354;10.064;2023-06-24T14:39:04;23.50;99.90
1702;DHT22;848;48.354;10.064;2023-06-24T14:41:31;23.60;99.90
1702;DHT22;848;48.354;10.064;2023-06-24T14:43:58;23.70;99.90
1702;DHT22;848;48.354;10.064;2023-06-24T14:46:25;23.80;99.90
1702;DHT22;848;48.354;10.064;2023-06-24T14:48:53;23.80;99.90
1702;DHT22;848;48.354;10.064;2023-06-24T14:51:20;23.70;99.90
1702;DHT22;848;48.354;10.064;2023-06-24T14:53:47;23.50;99.90
1702;DHT22;848;48.354;10.064;2023-06-24T14:56:14;23.40;99.90
1702;DHT22;848;48.354;10.064;2023-06-24T14:58:41;23.50;99.90
1702;DHT22;848;48.354;10.064;2023-06-24T15:01:08;23.60;99.90
1702;DHT22;848;48.354;10.064;2023-06-24T15:03:35;23.70;99.90
1702;DHT22;848;48.354;10.064;2023-06-24T15:06:03;23.80;99.90
1702;DHT22;848;48.354;10.064;2023-06-24T15:08:30;23.90;99.90
1702;DHT22;848;48.354;10.064;2023-06-24T15:10:57;23.90;99.90
1702;DHT22;848;48.354;10.064;2023-06-24T15:13:24;24.00;99.90
1702;DHT22;848;48.354;10.064;2023-06-24T15:15:51;24.10;99.90
1702;DHT22;848;48.354;10.064;2023-06-24T15:18:21;24.10;99.90
1702;DHT22;848;48.354;10.064;2023-06-24T15:20:48;23.90;99.90
1702;DHT22;848;48.354;10.064;2023-06-24T15:23:16;23.70;99.90
1702;DHT22;848;48.354;10.064;2023-06-24T15:25:43;23.60;99.90
1702;DHT22;848;48.354;10.064;2023-06-24T15:28:10;23.40;99.90
1702;DHT22;848;48.354;10.064;2023-06-24T15:30:37;23.30;99.90
1702;DHT22;848;48.354;10.064;2023-06-24T15:33:04;23.40;99.90
1702;DHT22;848;48.354;10.064;2023-06-24T15:35:31;23.50;99.90
1702;DHT22;848;48.354;10.064;2023-06-24T15:37:58;23.60;99.90
1702;DHT22;848;48.354;10.064;2023-06-24T15:40:26;23.70;99.90
1702;DHT22;848;48.354;10.064;2023-06-24T15:42:53;23.60;99.90
1702;DHT22;848;48.354;10.064;2023-06-24T15:45:20;23.60;99.90
1702;DHT22;848;48.354;10.064;2023-06-24T15:47:47;23.70;99.90
1702;DHT22;848;48.354;10.064;2023-06-24T15:50:14;23.70;99.90
1702;DHT22;848;48.354;10.064;2023-06-24T15:52:41;23.80;99.90
1702;DHT22;848;48.354;10.064;2023-06-24T15:55:08;23.90;99.90
1702;DHT22;848;48.354;10.064;2023-06-24T15:57:37;23.80;99.90
1702;DHT22;848;48.354;10.064;2023-06-24T16:00:04;23.80;99.90
1702;DHT22;848;48.354;10.064;2023-06-24T16:02:31;23.80;99.90
1702;DHT22;848;48.354;10.064;2023-06-24T16:04:58;23.90;99.90
1702;DHT22;848;48.354;10.064;2023-06-24T16:07:30;23.90;99.90
1702;DHT22;848;48.354;10.064;2023-06-24T16:09:57;23.90;99.90
1702;DHT22;848;48.354;10.064;2023-06-24T16:12:24;23.80;99.90